Time;durP1;ratioP1;P1;durP2;ratioP2;P2;SDS_P1;SDS_P2;PMS_P1;PMS_P2;Temp;Humidity;BMP_temperature;BMP_pressure;BME280_temperature;BME280_humidity;BME280_pressure;Samples;Min_cycle;Max_cycle;Signal;HPM_P1;HPM_P2
2023/09/12 00:02:07;;;;;;;1999.90;999.90;;;18.70;99.90;;;;;;5059620;28;20124;-67
2023/09/12 00:04:32;;;;;;;1999.90;999.90;;;18.70;99.90;;;;;;5059352;28;20041;-67
2023/09/12 00:06:58;;;;;;;1999.90;999.90;;;18.70;99.90;;;;;;5044284;28;20428;-67
2023/09/12 00:09:23;;;;;;;1999.90;999.90;;;18.70;99.90;;;;;;5052641;28;20073;-67
2023/09/12 00:11:49;;;;;;;1999.90;999.90;;;18.60;99.90;;;;;;5054024;28;20052;-67
2023/09/12 00:14:16;;;;;;;1999.90;999.90;;;18.60;99.90;;;;;;5038466;28;20040;-67
2023/09/12 00:16:42;;;;;;;1999.90;999.90;;;18.60;99.90;;;;;;5043887;28;20048;-67
2023/09/12 00:19:07;;;;;;;1999.90;999.90;;;18.60;99.90;;;;;;5041402;28;20041;-67
2023/09/12 00:21:33;;;;;;;1999.90;999.90;;;18.60;99.90;;;;;;5051718;28;20523;-67
2023/09/12 00:23:59;;;;;;;1999.90;999.90;;;18.50;99.90;;;;;;5047694;28;20037;-67
2023/09/12 00:26:24;;;;;;;1999.90;999.90;;;18.50;99.90;;;;;;5053574;28;20036;-67
2023/09/12 00:28:50;;;;;;;1999.90;999.90;;;18.50;99.90;;;;;;5054024;28;20028;-67
2023/09/12 00:31:15;;;;;;;1999.90;999.90;;;18.50;99.90;;;;;;5047711;28;20185;-67
2023/09/12 00:33:41;;;;;;;1999.90;999.90;;;18.50;99.90;;;;;;5031543;28;20048;-67
2023/09/12 00:36:07;;;;;;;1999.90;999.90;;;18.40;99.90;;;;;;5043442;28;20158;-67
2023/09/12 00:38:32;;;;;;;1999.90;999.90;;;18.40;99.90;;;;;;5049681;28;20115;-67
2023/09/12 00:40:58;;;;;;;1999.90;999.90;;;18.30;99.90;;;;;;5053842;28;20598;-67
2023/09/12 00:43:23;;;;;;;1999.90;999.90;;;18.30;99.90;;;;;;5041566;28;20508;-67
2023/09/12 00:45:49;;;;;;;1999.90;999.90;;;18.30;99.90;;;;;;5058205;28;20037;-67
2023/09/12 00:48:16;;;;;;;1999.90;999.90;;;18.30;99.90;;;;;;5057847;28;20063;-67
2023/09/12 00:50:43;;;;;;;1999.90;999.90;;;18.20;99.90;;;;;;5047449;28;20130;-67
2023/09/12 00:53:09;;;;;;;1999.90;999.90;;;18.30;99.90;;;;;;5048704;28;20054;-67
2023/09/12 00:55:40;;;;;;;1999.90;999.90;;;18.20;99.90;;;;;;5065209;28;20045;-67
2023/09/12 00:58:07;;;;;;;1999.90;999.90;;;18.20;99.90;;;;;;5044295;28;20045;-67
2023/09/12 01:00:33;;;;;;;1999.90;999.90;;;18.20;99.90;;;;;;5053738;28;20052;-67
2023/09/12 01:02:59;;;;;;;1999.90;999.90;;;18.20;99.90;;;;;;5055017;28;20120;-67
2023/09/12 01:05:25;;;;;;;1999.90;999.90;;;18.10;99.90;;;;;;5035077;28;20182;-67
2023/09/12 01:07:51;;;;;;;1999.90;999.90;;;18.10;99.90;;;;;;5057954;28;20056;-66
2023/09/12 01:10:16;;;;;;;1999.90;999.90;;;18.10;99.90;;;;;;5037107;28;20051;-67
2023/09/12 01:12:42;;;;;;;1999.90;999.90;;;18.10;99.90;;;;;;5063021;28;20582;-66
2023/09/12 01:15:13;;;;;;;1999.90;999.90;;;18.00;99.90;;;;;;5034434;28;20041;-67
2023/09/12 01:17:41;;;;;;;1999.90;999.90;;;18.00;99.90;;;;;;5048204;28;20052;-67
2023/09/12 01:20:11;;;;;;;1999.90;999.90;;;17.90;99.90;;;;;;5045912;28;20082;-67
2023/09/12 01:22:59;;;;;;;1999.90;999.90;;;17.90;99.90;;;;;;5049215;28;20041;-67
2023/09/12 01:25:45;;;;;;;1999.90;999.90;;;17.90;99.90;;;;;;5060005;28;20072;-67
2023/09/12 01:28:14;;;;;;;1999.90;999.90;;;17.80;99.90;;;;;;5045116;28;20063;-67
2023/09/12 01:30:42;;;;;;;1999.90;999.90;;;17.80;99.90;;;;;;5049469;28;20056;-67
2023/09/12 01:33:07;;;;;;;1999.90;999.90;;;17.70;99.90;;;;;;5062146;28;21429;-67
2023/09/12 01:35:33;;;;;;;1999.90;999.90;;;17.70;99.90;;;;;;5052079;28;20485;-67
2023/09/12 01:37:58;;;;;;;1999.90;999.90;;;17.70;99.90;;;;;;5056351;28;20039;-67
2023/09/12 01:40:34;;;;;;;1999.90;999.90;;;17.60;99.90;;;;;;5046573;28;20123;-67
2023/09/12 01:43:00;;;;;;;1999.90;999.90;;;17.60;99.90;;;;;;5046943;28;20076;-67
2023/09/12 01:45:27;;;;;;;1999.90;999.90;;;17.60;99.90;;;;;;5048272;28;20043;-67
2023/09/12 01:47:53;;;;;;;1999.90;999.90;;;17.60;99.90;;;;;;5056136;28;20040;-67
2023/09/12 01:50:20;;;;;;;1999.90;999.90;;;17.70;99.90;;;;;;5032959;28;20088;-67
2023/09/12 01:52:46;;;;;;;1999.90;999.90;;;17.60;99.90;;;;;;5059421;28;20048;-67
2023/09/12 01:55:12;;;;;;;1999.90;999.90;;;17.60;99.90;;;;;;5013250;28;20055;-67
2023/09/12 01:57:39;;;;;;;1999.90;999.90;;;17.60;99.90;;;;;;5047825;28;20107;-67
2023/09/12 02:00:05;;;;;;;1999.90;999.90;;;17.60;99.90;;;;;;5048898;28;20055;-67
2023/09/12 02:02:31;;;;;;;1999.90;999.90;;;17.50;99.90;;;;;;5031684;28;20439;-67
2023/09/12 02:05:18;;;;;;;1999.90;999.90;;;17.40;99.90;;;;;;5047141;28;20041;-67
2023/09/12 02:07:45;;;;;;;1999.90;999.90;;;17.40;99.90;;;;;;5042628;28;20044;-67
2023/09/12 02:10:10;;;;;;;1999.90;999.90;;;17.30;99.90;;;;;;5042636;28;20049;-67
2023/09/12 02:12:36;;;;;;;1999.90;999.90;;;17.40;99.90;;;;;;5056968;28;20066;-67
2023/09/12 02:15:02;;;;;;;1999.90;999.90;;;17.40;99.90;;;;;;5046649;28;20049;-67
2023/09/12 02:17:28;;;;;;;1999.90;999.90;;;17.30;99.90;;;;;;5055759;28;20040;-67
2023/09/12 02:19:54;;;;;;;1999.90;999.90;;;17.30;99.90;;;;;;5053826;28;20045;-67
2023/09/12 02:22:19;;;;;;;1999.90;999.90;;;17.30;99.90;;;;;;5019038;28;20477;-68
2023/09/12 02:24:45;;;;;;;1999.90;999.90;;;17.30;99.90;;;;;;5043628;28;20123;-67
2023/09/12 02:27:11;;;;;;;1999.90;999.90;;;17.30;99.90;;;;;;5055546;28;20032;-67
2023/09/12 02:29:41;;;;;;;1999.90;999.90;;;17.30;99.90;;;;;;5048736;28;20052;-67
2023/09/12 02:32:06;;;;;;;1999.90;999.90;;;17.30;99.90;;;;;;5041196;28;20037;-67
2023/09/12 02:34:33;;;;;;;1999.90;999.90;;;17.30;99.90;;;;;;5048351;28;20091;-67
2023/09/12 02:36:58;;;;;;;1999.90;999.90;;;17.30;99.90;;;;;;5048560;28;20091;-67
2023/09/12 02:39:24;;;;;;;1999.90;999.90;;;17.20;99.90;;;;;;5045064;28;20045;-67
2023/09/12 02:41:50;;;;;;;1999.90;999.90;;;17.30;99.90;;;;;;5049783;28;20030;-67
2023/09/12 02:44:16;;;;;;;1999.90;999.90;;;17.30;99.90;;;;;;5050494;28;20044;-67
2023/09/12 02:46:41;;;;;;;1999.90;999.90;;;17.20;99.90;;;;;;5059699;28;20097;-67
2023/09/12 02:49:07;;;;;;;1999.90;999.90;;;17.20;99.90;;;;;;5034002;28;20044;-67
2023/09/12 02:51:33;;;;;;;1999.90;999.90;;;17.10;99.90;;;;;;5029797;28;20048;-67
2023/09/12 02:53:58;;;;;;;1999.90;999.90;;;17.20;99.90;;;;;;5049824;28;20136;-67
2023/09/12 02:56:24;;;;;;;1999.90;999.90;;;17.20;99.90;;;;;;5027106;28;20038;-67
2023/09/12 02:58:50;;;;;;;1999.90;999.90;;;17.20;99.90;;;;;;5051542;28;20503;-67
2023/09/12 03:01:16;;;;;;;1999.90;999.90;;;17.10;99.90;;;;;;5048739;28;20040;-67
2023/09/12 03:03:42;;;;;;;1999.90;999.90;;;17.10;99.90;;;;;;5055900;28;20036;-67
2023/09/12 03:06:07;;;;;;;1999.90;999.90;;;17.10;99.90;;;;;;5040321;28;20555;-67
2023/09/12 03:08:33;;;;;;;1999.90;999.90;;;17.10;99.90;;;;;;5055393;28;20048;-67
2023/09/12 03:10:59;;;;;;;1999.90;999.90;;;17.10;99.90;;;;;;5054900;28;20043;-67
2023/09/12 03:13:26;;;;;;;1999.90;999.90;;;17.10;99.90;;;;;;5066388;28;20122;-67
2023/09/12 03:15:52;;;;;;;1999.90;999.90;;;17.10;99.90;;;;;;5046145;28;20392;-67
2023/09/12 03:18:18;;;;;;;1999.90;999.90;;;17.10;99.90;;;;;;5077109;28;20047;-67
2023/09/12 03:20:44;;;;;;;1999.90;999.90;;;17.10;99.90;;;;;;5048562;28;20109;-67
2023/09/12 03:23:09;;;;;;;1999.90;999.90;;;17.10;99.90;;;;;;5055080;28;20040;-67
2023/09/12 03:25:39;;;;;;;1999.90;999.90;;;17.10;99.90;;;;;;5040860;28;20518;-67
2023/09/12 03:28:05;;;;;;;1999.90;999.90;;;17.10;99.90;;;;;;5051859;28;20044;-67
2023/09/12 03:30:33;;;;;;;1999.90;999.90;;;17.10;99.90;;;;;;5049315;28;20037;-67
2023/09/12 03:32:58;;;;;;;1999.90;999.90;;;17.10;99.90;;;;;;5050529;28;20451;-67
2023/09/12 03:35:24;;;;;;;1999.90;999.90;;;17.10;99.90;;;;;;5043651;28;20147;-67
2023/09/12 03:37:50;;;;;;;1999.90;999.90;;;17.10;99.90;;;;;;5052188;28;20051;-67
2023/09/12 03:40:15;;;;;;;1999.90;999.90;;;17.10;99.90;;;;;;5054043;28;20048;-67
2023/09/12 03:42:41;;;;;;;1999.90;999.90;;;17.10;99.90;;;;;;5065789;28;20124;-67
2023/09/12 03:45:07;;;;;;;1999.90;999.90;;;17.10;99.90;;;;;;5059503;28;20162;-67
2023/09/12 03:47:33;;;;;;;1999.90;999.90;;;17.10;99.90;;;;;;5057293;28;20100;-67
2023/09/12 03:49:58;;;;;;;1999.90;999.90;;;17.10;99.90;;;;;;5044757;28;20131;-67
2023/09/12 03:52:24;;;;;;;1999.90;999.90;;;17.10;99.90;;;;;;5036036;28;20497;-67
2023/09/12 03:54:49;;;;;;;1999.90;999.90;;;17.10;99.90;;;;;;5052318;28;20170;-67
2023/09/12 03:57:15;;;;;;;1999.90;999.90;;;17.10;99.90;;;;;;5055549;28;20051;-67
2023/09/12 03:59:41;;;;;;;1999.90;999.90;;;17.10;99.90;;;;;;5049816;28;20556;-67
2023/09/12 04:02:06;;;;;;;1999.90;999.90;;;17.10;99.90;;;;;;5049956;28;20408;-67
2023/09/12 04:04:32;;;;;;;1999.90;999.90;;;17.10;99.90;;;;;;5030473;28;20494;-67
2023/09/12 04:06:58;;;;;;;1999.90;999.90;;;17.10;99.90;;;;;;5055155;28;20087;-67
2023/09/12 04:09:23;;;;;;;1999.90;999.90;;;17.10;99.90;;;;;;5045349;28;20049;-67
2023/09/12 04:11:49;;;;;;;1999.90;999.90;;;17.10;99.90;;;;;;5054815;28;20101;-67
2023/09/12 04:14:14;;;;;;;1999.90;999.90;;;17.10;99.90;;;;;;5031874;28;20092;-67
2023/09/12 04:16:40;;;;;;;1999.90;999.90;;;17.00;99.90;;;;;;5047073;28;20044;-67
2023/09/12 04:19:06;;;;;;;1999.90;999.90;;;17.00;99.90;;;;;;5029941;28;20133;-67
2023/09/12 04:21:31;;;;;;;1999.90;999.90;;;16.90;99.90;;;;;;5038702;28;20033;-67
2023/09/12 04:23:57;;;;;;;1999.90;999.90;;;16.80;99.90;;;;;;5058887;28;20044;-67
2023/09/12 04:26:22;;;;;;;1999.90;999.90;;;16.80;99.90;;;;;;5031168;28;20569;-67
2023/09/12 04:28:48;;;;;;;1999.90;999.90;;;16.70;99.90;;;;;;5066021;28;20054;-67
2023/09/12 04:31:14;;;;;;;1999.90;999.90;;;16.70;99.90;;;;;;5051777;28;20124;-67
2023/09/12 04:33:39;;;;;;;1999.90;999.90;;;16.60;99.90;;;;;;5030388;28;20068;-67
2023/09/12 04:36:05;;;;;;;1999.90;999.90;;;16.60;99.90;;;;;;5032412;28;20053;-67
2023/09/12 04:38:32;;;;;;;1999.90;999.90;;;16.60;99.90;;;;;;5059896;28;20044;-67
2023/09/12 04:41:05;;;;;;;1999.90;999.90;;;16.60;99.90;;;;;;5055231;28;20079;-67
2023/09/12 04:43:32;;;;;;;1999.90;999.90;;;16.70;99.90;;;;;;5059656;28;20055;-67
2023/09/12 04:45:57;;;;;;;1999.90;999.90;;;16.70;99.90;;;;;;5052528;28;20507;-67
2023/09/12 04:48:23;;;;;;;1999.90;999.90;;;16.70;99.90;;;;;;5046770;28;20037;-68
2023/09/12 04:50:49;;;;;;;1999.90;999.90;;;16.70;99.90;;;;;;5046004;28;20068;-67
2023/09/12 04:53:14;;;;;;;1999.90;999.90;;;16.70;99.90;;;;;;5063907;28;20498;-67
2023/09/12 04:55:40;;;;;;;1999.90;999.90;;;16.70;99.90;;;;;;5049290;28;20045;-67
2023/09/12 04:58:06;;;;;;;1999.90;999.90;;;16.70;99.90;;;;;;5048123;28;20401;-67
2023/09/12 05:00:33;;;;;;;1999.90;999.90;;;16.70;99.90;;;;;;5030892;28;20048;-67
2023/09/12 05:02:59;;;;;;;1999.90;999.90;;;16.70;99.90;;;;;;5055569;28;20040;-67
2023/09/12 05:05:25;;;;;;;1999.90;999.90;;;16.70;99.90;;;;;;5049654;28;20068;-67
2023/09/12 05:07:53;;;;;;;1999.90;999.90;;;16.70;99.90;;;;;;5053093;28;20041;-67
2023/09/12 05:10:19;;;;;;;1999.90;999.90;;;16.70;99.90;;;;;;5039435;28;20076;-67
2023/09/12 05:12:45;;;;;;;1999.90;999.90;;;16.70;99.90;;;;;;5042073;28;20743;-67
2023/09/12 05:15:10;;;;;;;1999.90;999.90;;;16.70;99.90;;;;;;5051263;28;20076;-67
2023/09/12 05:17:36;;;;;;;1999.90;999.90;;;16.80;99.90;;;;;;5043992;28;20041;-67
2023/09/12 05:20:04;;;;;;;1999.90;999.90;;;16.90;99.90;;;;;;5041303;28;20048;-67
2023/09/12 05:22:30;;;;;;;1999.90;999.90;;;17.00;99.90;;;;;;5049190;28;20325;-67
2023/09/12 05:24:56;;;;;;;1999.90;999.90;;;17.00;99.90;;;;;;5049976;28;20112;-67
2023/09/12 05:27:22;;;;;;;1999.90;999.90;;;17.00;99.90;;;;;;5045616;28;20489;-67
2023/09/12 05:29:47;;;;;;;1999.90;999.90;;;17.10;99.90;;;;;;5049736;28;20044;-67
2023/09/12 05:32:13;;;;;;;1999.90;999.90;;;17.10;99.90;;;;;;5051296;28;20052;-67
2023/09/12 05:34:38;;;;;;;1999.90;999.90;;;17.20;99.90;;;;;;5031875;28;20033;-67
2023/09/12 05:37:04;;;;;;;1999.90;999.90;;;17.20;99.90;;;;;;5044157;28;20044;-67
2023/09/12 05:39:30;;;;;;;1999.90;999.90;;;17.30;99.90;;;;;;5032805;28;20087;-68
2023/09/12 05:41:55;;;;;;;1999.90;999.90;;;17.20;99.90;;;;;;5046735;28;20040;-67
2023/09/12 05:44:21;;;;;;;1999.90;999.90;;;17.20;99.90;;;;;;5039758;28;20049;-67
2023/09/12 05:46:47;;;;;;;1999.90;999.90;;;17.30;99.90;;;;;;5063387;28;20065;-67
2023/09/12 05:49:14;;;;;;;1999.90;999.90;;;17.30;99.90;;;;;;5049713;28;20041;-67
2023/09/12 05:51:40;;;;;;;1999.90;999.90;;;17.30;99.90;;;;;;5059680;28;20044;-67
2023/09/12 05:54:06;;;;;;;1999.90;999.90;;;17.40;99.90;;;;;;5043655;28;20049;-67
2023/09/12 05:56:31;;;;;;;1999.90;999.90;;;17.40;99.90;;;;;;5047792;28;20045;-66
2023/09/12 05:58:57;;;;;;;1999.90;999.90;;;17.50;99.90;;;;;;5046805;28;20074;-67
2023/09/12 06:01:23;;;;;;;1999.90;999.90;;;17.50;99.90;;;;;;5054051;28;20040;-67
2023/09/12 06:03:48;;;;;;;1999.90;999.90;;;17.50;99.90;;;;;;5051509;28;20044;-67
2023/09/12 06:06:14;;;;;;;1999.90;999.90;;;17.50;99.90;;;;;;5058802;28;20049;-67
2023/09/12 06:08:40;;;;;;;1999.90;999.90;;;17.60;99.90;;;;;;5043775;28;20520;-67
2023/09/12 06:11:05;;;;;;;1999.90;999.90;;;17.60;99.90;;;;;;5049147;28;20041;-67
2023/09/12 06:13:32;;;;;;;1999.90;999.90;;;17.70;99.90;;;;;;5045005;28;20488;-67
2023/09/12 06:15:58;;;;;;;1999.90;999.90;;;17.70;99.90;;;;;;5036907;28;20045;-67
2023/09/12 06:18:24;;;;;;;1999.90;999.90;;;17.70;99.90;;;;;;5055822;28;20373;-67
2023/09/12 06:20:50;;;;;;;1999.90;999.90;;;17.70;99.90;;;;;;5041287;28;20047;-67
2023/09/12 06:23:15;;;;;;;1999.90;999.90;;;17.80;99.90;;;;;;5056350;28;20073;-67
2023/09/12 06:25:41;;;;;;;1999.90;999.90;;;17.80;99.90;;;;;;5044612;28;20071;-67
2023/09/12 06:28:10;;;;;;;1999.90;999.90;;;17.80;99.90;;;;;;5047922;28;20045;-67
2023/09/12 06:30:35;;;;;;;1999.90;999.90;;;17.80;99.90;;;;;;5033058;28;20515;-67
2023/09/12 06:33:01;;;;;;;1999.90;999.90;;;17.90;99.90;;;;;;5054166;28;20037;-67
2023/09/12 06:35:27;;;;;;;1999.90;999.90;;;17.80;99.90;;;;;;5056172;28;20103;-67
2023/09/12 06:37:53;;;;;;;1999.90;999.90;;;17.90;99.90;;;;;;5044496;28;20125;-67
2023/09/12 06:40:19;;;;;;;1999.90;999.90;;;17.90;99.90;;;;;;5045342;28;20409;-67
2023/09/12 06:42:44;;;;;;;1999.90;999.90;;;17.90;99.90;;;;;;5056345;28;20049;-67
2023/09/12 06:45:10;;;;;;;1999.90;999.90;;;17.90;99.90;;;;;;5049230;28;20060;-67
2023/09/12 06:47:36;;;;;;;1999.90;999.90;;;17.90;99.90;;;;;;5054036;28;20045;-67
2023/09/12 06:50:02;;;;;;;1999.90;999.90;;;17.90;99.90;;;;;;5041047;28;20451;-67
2023/09/12 06:52:28;;;;;;;1999.90;999.90;;;18.00;99.90;;;;;;5053550;28;20469;-67
2023/09/12 06:54:53;;;;;;;1999.90;999.90;;;18.00;99.90;;;;;;5044924;28;20049;-67
2023/09/12 06:57:19;;;;;;;1999.90;999.90;;;18.10;99.90;;;;;;5050685;28;20488;-67
2023/09/12 06:59:44;;;;;;;1999.90;999.90;;;18.20;99.90;;;;;;5050280;28;20079;-68
2023/09/12 07:02:12;;;;;;;1999.90;999.90;;;18.20;99.90;;;;;;5042531;28;20047;-69
2023/09/12 07:04:38;;;;;;;1999.90;999.90;;;18.30;99.90;;;;;;5051399;28;20049;-68
2023/09/12 07:07:04;;;;;;;1999.90;999.90;;;18.30;99.90;;;;;;5036247;28;20049;-67
2023/09/12 07:09:30;;;;;;;1999.90;999.90;;;18.40;99.90;;;;;;5038302;28;20048;-68
2023/09/12 07:11:55;;;;;;;1999.90;999.90;;;18.40;99.90;;;;;;5049783;28;20037;-68
2023/09/12 07:14:22;;;;;;;1999.90;999.90;;;18.50;99.90;;;;;;5069059;28;20036;-68
2023/09/12 07:16:48;;;;;;;1999.90;999.90;;;18.60;99.90;;;;;;5059294;28;20034;-68
2023/09/12 07:19:14;;;;;;;1999.90;999.90;;;18.60;99.90;;;;;;5066081;28;20420;-68
2023/09/12 07:21:39;;;;;;;1999.90;999.90;;;18.70;99.90;;;;;;5050621;28;20044;-67
2023/09/12 07:24:05;;;;;;;1999.90;999.90;;;18.80;99.90;;;;;;5025288;28;20072;-68
2023/09/12 07:26:31;;;;;;;1999.90;999.90;;;18.70;99.90;;;;;;5043722;28;20045;-68
2023/09/12 07:28:57;;;;;;;1999.90;999.90;;;18.80;99.90;;;;;;5054925;28;20056;-67
2023/09/12 07:31:22;;;;;;;1999.90;999.90;;;18.90;99.90;;;;;;5031522;28;20049;-68
2023/09/12 07:33:48;;;;;;;1999.90;999.90;;;18.90;99.90;;;;;;5062991;28;20041;-67
2023/09/12 07:36:14;;;;;;;1999.90;999.90;;;18.90;99.90;;;;;;5055878;28;20102;-68
2023/09/12 07:38:41;;;;;;;1999.90;999.90;;;19.00;99.90;;;;;;5065153;28;20036;-68
2023/09/12 07:41:06;;;;;;;1999.90;999.90;;;19.00;99.90;;;;;;5053740;28;20115;-68
2023/09/12 07:43:32;;;;;;;1999.90;999.90;;;19.00;99.90;;;;;;5047981;28;20302;-68
2023/09/12 07:45:58;;;;;;;1999.90;999.90;;;19.10;99.90;;;;;;5060193;28;20049;-67
2023/09/12 07:48:24;;;;;;;1999.90;999.90;;;19.20;99.90;;;;;;5053545;28;20444;-68
2023/09/12 07:50:51;;;;;;;1999.90;999.90;;;19.20;99.90;;;;;;5056451;28;20052;-68
2023/09/12 07:53:17;;;;;;;1999.90;999.90;;;19.20;99.90;;;;;;5054361;28;20071;-68
2023/09/12 07:55:46;;;;;;;1999.90;999.90;;;19.10;99.90;;;;;;5066038;28;20041;-68
2023/09/12 07:58:18;;;;;;;1999.90;999.90;;;19.10;99.90;;;;;;5055198;28;20041;-68
2023/09/12 08:00:43;;;;;;;1999.90;999.90;;;19.10;99.90;;;;;;5051968;28;20049;-67
2023/09/12 08:03:09;;;;;;;1999.90;999.90;;;19.00;99.90;;;;;;5029038;28;20039;-67
2023/09/12 08:05:35;;;;;;;1999.90;999.90;;;19.00;99.90;;;;;;5047227;28;20060;-67
2023/09/12 08:08:00;;;;;;;1999.90;999.90;;;19.00;99.90;;;;;;5048187;28;20040;-68
2023/09/12 08:10:26;;;;;;;1999.90;999.90;;;19.10;99.90;;;;;;5045420;28;20041;-68
2023/09/12 08:12:52;;;;;;;1999.90;999.90;;;19.20;99.90;;;;;;5042728;28;20076;-67
2023/09/12 08:15:17;;;;;;;1999.90;999.90;;;19.30;99.90;;;;;;5052736;28;20054;-68
2023/09/12 08:17:43;;;;;;;1999.90;999.90;;;19.40;99.90;;;;;;5044970;28;20052;-68
2023/09/12 08:20:09;;;;;;;1999.90;999.90;;;19.40;99.90;;;;;;5055309;28;20037;-68
2023/09/12 08:22:38;;;;;;;1999.90;999.90;;;19.50;99.90;;;;;;5051105;28;20041;-67
2023/09/12 08:25:04;;;;;;;1999.90;999.90;;;19.60;99.90;;;;;;5048142;28;20068;-67
2023/09/12 08:27:30;;;;;;;1999.90;999.90;;;19.70;99.90;;;;;;5032285;28;20135;-67
2023/09/12 08:29:56;;;;;;;1999.90;999.90;;;19.80;99.90;;;;;;5031314;28;20045;-68
2023/09/12 08:32:21;;;;;;;1999.90;999.90;;;19.90;99.90;;;;;;5050806;28;20048;-67
2023/09/12 08:34:47;;;;;;;1999.90;999.90;;;20.00;99.90;;;;;;5032645;28;20039;-67
2023/09/12 08:37:12;;;;;;;1999.90;999.90;;;20.20;99.90;;;;;;5045569;28;20096;-67
2023/09/12 08:39:43;;;;;;;1999.90;999.90;;;20.30;99.90;;;;;;5044611;28;20051;-68
2023/09/12 08:42:16;;;;;;;1999.90;999.90;;;20.30;99.90;;;;;;5031295;28;20120;-68
2023/09/12 08:44:42;;;;;;;1999.90;999.90;;;20.30;99.90;;;;;;5064677;28;20135;-68
2023/09/12 08:47:12;;;;;;;1999.90;999.90;;;20.40;99.90;;;;;;5047883;28;20044;-67
2023/09/12 08:49:38;;;;;;;1999.90;999.90;;;20.50;99.90;;;;;;5035171;28;20044;-67
2023/09/12 08:52:07;;;;;;;1999.90;999.90;;;20.60;99.90;;;;;;5040743;28;20059;-68
2023/09/12 08:54:33;;;;;;;1999.90;999.90;;;20.70;99.90;;;;;;5047355;28;20124;-68
2023/09/12 08:57:02;;;;;;;1999.90;999.90;;;20.80;99.90;;;;;;5068860;28;20047;-67
2023/09/12 08:59:29;;;;;;;1999.90;999.90;;;20.90;99.90;;;;;;5057431;28;20056;-67
2023/09/12 09:01:57;;;;;;;1999.90;999.90;;;21.00;99.90;;;;;;5046092;28;20160;-67
2023/09/12 09:04:23;;;;;;;1999.90;999.90;;;21.20;99.90;;;;;;5045565;28;20102;-67
2023/09/12 09:06:50;;;;;;;1999.90;999.90;;;21.20;99.90;;;;;;5052415;28;20057;-68
2023/09/12 09:09:17;;;;;;;1999.90;999.90;;;21.20;99.90;;;;;;5052127;28;20192;-67
2023/09/12 09:11:42;;;;;;;1999.90;999.90;;;21.20;99.90;;;;;;5053818;28;20041;-68
2023/09/12 09:14:08;;;;;;;1999.90;999.90;;;21.10;99.90;;;;;;5056458;28;20036;-67
2023/09/12 09:16:35;;;;;;;1999.90;999.90;;;21.00;99.90;;;;;;5042991;28;20040;-68
2023/09/12 09:19:09;;;;;;;1999.90;999.90;;;21.00;99.90;;;;;;5036231;28;20123;-68
2023/09/12 09:21:35;;;;;;;1999.90;999.90;;;21.00;99.90;;;;;;5032738;28;20128;-67
2023/09/12 09:24:06;;;;;;;1999.90;999.90;;;21.10;99.90;;;;;;5048221;28;20044;-68
2023/09/12 09:26:46;;;;;;;1999.90;999.90;;;21.20;99.90;;;;;;5053437;28;20044;-67
2023/09/12 09:29:19;;;;;;;1999.90;999.90;;;21.20;99.90;;;;;;5050816;28;20072;-67
2023/09/12 09:31:47;;;;;;;1999.90;999.90;;;21.30;99.90;;;;;;5061419;28;20044;-67
2023/09/12 09:34:14;;;;;;;1999.90;999.90;;;21.30;99.90;;;;;;5031098;28;20461;-68
2023/09/12 09:36:51;;;;;;;1999.90;999.90;;;21.40;99.90;;;;;;5044095;28;20037;-67
2023/09/12 09:39:22;;;;;;;1604.63;848.47;;;21.50;99.90;;;;;;5036030;28;20048;-68
2023/09/12 09:41:49;;;;;;;377.08;355.25;;;21.80;99.90;;;;;;5049301;28;20178;-68
2023/09/12 09:44:16;;;;;;;457.13;431.05;;;21.90;99.90;;;;;;5033555;28;20044;-68
2023/09/12 09:46:46;;;;;;;425.92;401.65;;;22.10;99.90;;;;;;5046922;28;20118;-67
2023/09/12 09:49:14;;;;;;;377.38;355.95;;;22.10;99.90;;;;;;5054502;28;20045;-67
2023/09/12 09:51:44;;;;;;;369.50;347.67;;;22.30;99.90;;;;;;5052244;28;20288;-67
2023/09/12 09:54:11;;;;;;;358.45;337.95;;;22.50;99.90;;;;;;5029842;28;20133;-67
2023/09/12 09:56:52;;;;;;;340.23;321.13;;;22.70;99.90;;;;;;5048723;28;20095;-68
2023/09/12 09:59:21;;;;;;;402.30;379.42;;;22.80;99.90;;;;;;5052738;28;20048;-67
2023/09/12 10:01:50;;;;;;;487.17;459.63;;;22.90;99.90;;;;;;5053882;28;20594;-67
2023/09/12 10:04:17;;;;;;;462.10;435.55;;;22.90;99.90;;;;;;5055741;28;20124;-67
2023/09/12 10:06:45;;;;;;;499.80;471.42;;;22.80;99.90;;;;;;5043458;28;20099;-67
2023/09/12 10:09:15;;;;;;;388.75;366.63;;;22.80;99.90;;;;;;5043165;28;20435;-67
2023/09/12 10:11:43;;;;;;;405.42;382.05;;;22.80;99.90;;;;;;5031146;28;20044;-68
2023/09/12 10:14:09;;;;;;;369.80;348.85;;;22.80;99.90;;;;;;5062086;28;20044;-67
2023/09/12 10:16:38;;;;;;;372.23;351.95;;;22.80;99.90;;;;;;5042139;28;20055;-67
2023/09/12 10:19:13;;;;;;;365.90;346.15;;;22.70;99.90;;;;;;5046211;28;20045;-68
2023/09/12 10:21:45;;;;;;;367.98;347.58;;;22.70;99.90;;;;;;5042426;28;20046;-68
2023/09/12 10:24:12;;;;;;;373.77;353.40;;;22.70;99.90;;;;;;5044979;28;20075;-67
2023/09/12 10:26:42;;;;;;;368.42;348.17;;;22.80;99.90;;;;;;5059968;28;20043;-68
2023/09/12 10:29:09;;;;;;;294.60;278.50;;;22.90;99.90;;;;;;5045703;28;20056;-67
2023/09/12 10:31:35;;;;;;;278.38;263.20;;;23.10;99.90;;;;;;5063350;28;20475;-68
2023/09/12 10:34:04;;;;;;;247.65;233.88;;;23.30;99.90;;;;;;5046499;28;20041;-67
2023/09/12 10:36:30;;;;;;;238.32;224.88;;;23.70;99.90;;;;;;5047319;28;20392;-67
2023/09/12 10:38:59;;;;;;;246.90;233.45;;;23.90;99.90;;;;;;5058316;28;20055;-67
2023/09/12 10:41:25;;;;;;;188.10;177.18;;;24.00;99.90;;;;;;5039485;28;20053;-67
2023/09/12 10:43:53;;;;;;;198.95;187.73;;;24.10;99.90;;;;;;5044371;28;20049;-67
2023/09/12 10:46:21;;;;;;;228.45;215.70;;;24.20;99.90;;;;;;5039372;28;20973;-67
2023/09/12 10:48:47;;;;;;;196.00;185.40;;;24.30;99.90;;;;;;5048113;28;20037;-67
2023/09/12 10:51:13;;;;;;;178.02;167.95;;;24.30;99.90;;;;;;5059457;28;20032;-67
2023/09/12 10:53:46;;;;;;;147.77;138.80;;;24.30;99.90;;;;;;5043145;28;20036;-67
2023/09/12 10:56:19;;;;;;;144.93;136.82;;;24.30;99.90;;;;;;5046494;28;20043;-67
2023/09/12 10:59:15;;;;;;;131.20;123.70;;;24.40;99.90;;;;;;5049945;28;20552;-68
2023/09/12 11:01:46;;;;;;;120.60;112.97;;;24.40;99.90;;;;;;5036507;28;20367;-68
2023/09/12 11:04:18;;;;;;;130.23;122.93;;;24.40;99.90;;;;;;5055717;28;20039;-67
2023/09/12 11:06:44;;;;;;;146.98;138.77;;;24.30;99.90;;;;;;5056523;28;21252;-67
2023/09/12 11:09:20;;;;;;;136.73;129.20;;;24.30;99.90;;;;;;5055421;28;20116;-68
2023/09/12 11:11:47;;;;;;;128.30;121.18;;;24.20;99.90;;;;;;5051511;28;20049;-67
2023/09/12 11:14:15;;;;;;;146.70;138.55;;;24.30;99.90;;;;;;5052955;28;20045;-67
2023/09/12 11:16:41;;;;;;;131.98;124.60;;;24.30;99.90;;;;;;5056269;28;20045;-67
2023/09/12 11:19:26;;;;;;;117.95;111.07;;;24.40;99.90;;;;;;5048380;28;20041;-67
2023/09/12 11:21:53;;;;;;;122.45;115.65;;;24.40;99.90;;;;;;5050228;28;20120;-67
2023/09/12 11:24:19;;;;;;;113.18;106.93;;;24.40;99.90;;;;;;5056250;28;20040;-67
2023/09/12 11:26:59;;;;;;;111.82;105.53;;;24.40;99.90;;;;;;5051118;28;20037;-67
2023/09/12 11:29:36;;;;;;;114.00;107.68;;;24.60;99.90;;;;;;5047423;28;20055;-67
2023/09/12 11:32:03;;;;;;;100.90;95.10;;;24.70;99.90;;;;;;5047618;28;20052;-68
2023/09/12 11:34:35;;;;;;;203.00;193.02;;;24.90;99.90;;;;;;5033177;28;20423;-67
2023/09/12 11:37:03;;;;;;;68.72;64.50;;;25.00;99.90;;;;;;5061986;28;20049;-68
2023/09/12 11:39:34;;;;;;;197.13;187.52;;;25.10;99.90;;;;;;5044941;28;20064;-67
2023/09/12 11:42:02;;;;;;;141.38;134.15;;;25.00;99.90;;;;;;5047024;28;20037;-67
2023/09/12 11:44:30;;;;;;;159.50;151.60;;;25.00;99.90;;;;;;5040417;28;20131;-67
2023/09/12 11:47:02;;;;;;;357.27;339.55;;;25.00;99.90;;;;;;5049575;28;20037;-67
2023/09/12 11:49:35;;;;;;;91.78;86.70;;;25.10;99.90;;;;;;5033916;28;20416;-67
2023/09/12 11:52:00;;;;;;;260.00;247.18;;;25.10;99.90;;;;;;5045524;28;20045;-67
2023/09/12 11:54:26;;;;;;;103.43;97.53;;;25.00;99.90;;;;;;5048759;28;20449;-67
2023/09/12 11:56:56;;;;;;;177.65;168.77;;;25.00;99.90;;;;;;5041553;28;20045;-67
2023/09/12 11:59:32;;;;;;;232.00;220.60;;;24.70;99.90;;;;;;5049413;28;20056;-67
2023/09/12 12:01:57;;;;;;;193.80;184.23;;;24.50;99.90;;;;;;5050302;28;20120;-67